createdAt,value
2023-11-01T00:02:17.637Z,74.07
2023-11-01T00:04:47.314Z,73.57
2023-11-01T00:07:18.757Z,72.66
2023-11-01T00:09:47.034Z,72.99
2023-11-01T00:12:15.323Z,72.44
2023-11-01T00:14:46.465Z,71.89
2023-11-01T00:17:25.160Z,73.55
2023-11-01T00:20:03.303Z,72.41
2023-11-01T00:22:34.373Z,69.64
2023-11-01T00:25:17.823Z,70.80
2023-11-01T00:27:46.097Z,73.97
2023-11-01T00:30:14.908Z,74.91
2023-11-01T00:32:43.403Z,74.60
2023-11-01T00:35:13.283Z,74.74
2023-11-01T00:37:44.737Z,73.79
2023-11-01T00:40:13.950Z,75.20
2023-11-01T00:42:45.347Z,73.67
2023-11-01T00:45:13.800Z,74.19
2023-11-01T00:47:42.240Z,75.08
2023-11-01T00:50:12.385Z,73.77
2023-11-01T00:52:43.812Z,74.78
2023-11-01T00:55:20.686Z,76.61
2023-11-01T00:57:49.597Z,76.23
2023-11-01T01:00:23.801Z,76.68
2023-11-01T01:02:52.540Z,76.53
2023-11-01T01:05:23.706Z,77.26
2023-11-01T01:07:52.082Z,76.60
2023-11-01T01:10:20.357Z,75.13
2023-11-01T01:12:48.642Z,75.10
2023-11-01T01:15:16.986Z,74.43
2023-11-01T01:17:47.626Z,75.33
2023-11-01T01:20:16.336Z,75.12
2023-11-01T01:22:48.706Z,73.81
2023-11-01T01:25:17.218Z,71.30
2023-11-01T01:27:48.776Z,70.80
2023-11-01T01:30:20.379Z,71.50
2023-11-01T01:32:48.786Z,72.51
2023-11-01T01:35:17.691Z,74.25
2023-11-01T01:37:47.379Z,73.95
2023-11-01T01:40:21.827Z,76.01
2023-11-01T01:42:50.148Z,73.35
2023-11-01T01:45:21.386Z,70.51
2023-11-01T01:47:50.066Z,70.05
2023-11-01T01:50:21.654Z,73.12
2023-11-01T01:52:51.353Z,74.74
2023-11-01T01:55:22.707Z,74.11
2023-11-01T01:57:54.505Z,73.27
2023-11-01T02:00:29.335Z,72.42
2023-11-01T02:03:01.756Z,71.49
2023-11-01T02:05:31.572Z,71.69
2023-11-01T02:08:04.064Z,73.37
2023-11-01T02:10:32.390Z,72.65
2023-11-01T02:13:15.577Z,71.14
2023-11-01T02:15:45.852Z,69.00
2023-11-01T02:18:14.893Z,73.41
2023-11-01T02:20:48.844Z,73.53
2023-11-01T02:23:18.675Z,73.55
2023-11-01T02:25:51.977Z,73.35
2023-11-01T02:28:27.942Z,77.55
2023-11-01T02:30:56.298Z,77.32
2023-11-01T02:33:27.924Z,78.95
2023-11-01T02:35:56.866Z,78.21
2023-11-01T02:38:25.465Z,76.78
2023-11-01T02:40:57.928Z,76.25
2023-11-01T02:43:32.543Z,76.43
2023-11-01T02:46:04.299Z,78.99
2023-11-01T02:48:35.992Z,79.80
2023-11-01T02:51:07.442Z,79.50
2023-11-01T02:53:38.889Z,77.72
2023-11-01T02:56:22.206Z,78.25
2023-11-01T02:58:50.489Z,79.14
2023-11-01T03:01:22.611Z,79.57
2023-11-01T03:03:53.877Z,78.42
2023-11-01T03:06:22.495Z,79.49
2023-11-01T03:09:05.321Z,79.39
2023-11-01T03:11:35.005Z,77.53
2023-11-01T03:14:03.333Z,75.88
2023-11-01T03:16:31.998Z,80.23
2023-11-01T03:19:12.368Z,80.66
2023-11-01T03:21:43.757Z,82.76
2023-11-01T03:24:17.332Z,80.86
2023-11-01T03:26:50.075Z,82.56
2023-11-01T03:29:18.952Z,79.91
2023-11-01T03:31:47.279Z,76.66
2023-11-01T03:34:15.976Z,79.02
2023-11-01T03:36:44.711Z,79.99
2023-11-01T03:39:18.079Z,78.80
2023-11-01T03:41:46.629Z,78.70
2023-11-01T03:44:19.070Z,79.37
2023-11-01T03:46:50.138Z,80.18
2023-11-01T03:49:21.564Z,78.16
2023-11-01T03:51:52.631Z,81.57
2023-11-01T03:54:20.907Z,80.17
2023-11-01T03:56:49.248Z,81.13
2023-11-01T03:59:22.151Z,79.64
2023-11-01T04:01:50.511Z,81.70
2023-11-01T04:04:21.296Z,82.45
2023-11-01T04:06:49.680Z,81.66
2023-11-01T04:09:18.043Z,83.64
2023-11-01T04:11:46.418Z,81.67
2023-11-01T04:14:17.735Z,81.94
2023-11-01T04:16:52.851Z,80.90
2023-11-01T04:19:23.609Z,77.40
2023-11-01T04:21:52.114Z,80.90
2023-11-01T04:24:20.631Z,79.27
2023-11-01T04:26:53.667Z,81.81
2023-11-01T04:29:27.539Z,80.06
2023-11-01T04:32:03.871Z,82.31
2023-11-01T04:34:35.254Z,83.32
2023-11-01T04:37:06.761Z,83.75
2023-11-01T04:39:37.906Z,78.36
2023-11-01T04:42:06.760Z,79.28
2023-11-01T04:44:41.036Z,80.20
2023-11-01T04:47:19.443Z,80.97
2023-11-01T04:49:48.275Z,80.97
2023-11-01T04:52:19.571Z,81.86
2023-11-01T04:54:50.268Z,82.69
2023-11-01T04:57:21.844Z,79.86
2023-11-01T04:59:51.945Z,78.29
2023-11-01T05:02:24.222Z,82.21
2023-11-01T05:04:58.777Z,83.34
2023-11-01T05:07:27.069Z,82.40
2023-11-01T05:09:55.363Z,83.05
2023-11-01T05:12:23.668Z,82.86
2023-11-01T05:14:51.968Z,83.07
2023-11-01T05:17:21.747Z,80.78
2023-11-01T05:19:50.078Z,80.88
2023-11-01T05:22:18.508Z,80.84
2023-11-01T05:24:48.002Z,82.31
2023-11-01T05:27:16.520Z,79.51
2023-11-01T05:29:44.879Z,79.39
2023-11-01T05:32:16.351Z,80.84
2023-11-01T05:34:51.247Z,81.94
2023-11-01T05:37:20.408Z,83.28
2023-11-01T05:39:48.700Z,82.00
2023-11-01T05:42:17.108Z,81.18
2023-11-01T05:44:52.720Z,78.85
2023-11-01T05:47:21.047Z,78.36
2023-11-01T05:49:58.430Z,80.37
2023-11-01T05:52:29.133Z,81.30
2023-11-01T05:55:07.163Z,82.33
2023-11-01T05:57:51.265Z,78.15
2023-11-01T06:00:20.590Z,80.97
2023-11-01T06:02:52.122Z,80.16
2023-11-01T06:05:24.077Z,82.04
2023-11-01T06:07:53.408Z,81.11
2023-11-01T06:10:22.030Z,79.62
2023-11-01T06:12:50.310Z,79.92
2023-11-01T06:15:18.636Z,80.26
2023-11-01T06:17:53.513Z,81.92
2023-11-01T06:20:23.328Z,81.48
2023-11-01T06:22:59.194Z,80.96
2023-11-01T06:25:27.502Z,80.45
2023-11-01T06:27:56.176Z,80.36
2023-11-01T06:30:24.475Z,78.35
2023-11-01T06:32:52.912Z,77.97
2023-11-01T06:35:25.102Z,81.46
2023-11-01T06:37:56.773Z,78.12
2023-11-01T06:40:25.126Z,77.53
2023-11-01T06:42:54.758Z,77.67
2023-11-01T06:45:24.593Z,78.20
2023-11-01T06:47:52.972Z,81.07
2023-11-01T06:50:23.321Z,81.05
2023-11-01T06:52:51.734Z,81.32
2023-11-01T06:55:26.003Z,79.85
2023-11-01T06:57:54.672Z,79.35
2023-11-01T07:00:25.181Z,78.72
2023-11-01T07:02:53.645Z,80.27
2023-11-01T07:05:52.083Z,82.54
2023-11-01T07:08:20.422Z,80.84
2023-11-01T07:10:50.895Z,79.71
2023-11-01T07:13:22.281Z,79.28
2023-11-01T07:15:50.596Z,79.07
2023-11-01T07:18:21.957Z,78.81
2023-11-01T07:20:53.936Z,80.53
2023-11-01T07:23:28.374Z,80.13
2023-11-01T07:25:59.727Z,80.72
2023-11-01T07:28:32.329Z,79.02
2023-11-01T07:31:03.737Z,78.00
2023-11-01T07:33:39.586Z,80.50
2023-11-01T07:36:10.808Z,79.38
2023-11-01T07:38:42.520Z,79.16
2023-11-01T07:41:12.235Z,77.07
2023-11-01T07:43:43.870Z,77.51
2023-11-01T07:46:14.441Z,78.02
2023-11-01T07:48:42.795Z,78.59
2023-11-01T07:51:13.217Z,79.65
2023-11-01T07:53:41.608Z,80.63
2023-11-01T07:56:10.554Z,78.78
2023-11-01T07:58:39.018Z,78.63
2023-11-01T08:01:13.591Z,77.17
2023-11-01T08:03:44.386Z,78.12
2023-11-01T08:06:14.135Z,77.97
2023-11-01T08:08:45.585Z,77.18
2023-11-01T08:11:16.988Z,78.67
2023-11-01T08:13:47.013Z,76.81
2023-11-01T08:16:15.615Z,78.11
2023-11-01T08:18:46.163Z,77.85
2023-11-01T08:21:18.374Z,79.96
2023-11-01T08:23:49.695Z,79.49
2023-11-01T08:26:18.716Z,79.31
2023-11-01T08:28:47.438Z,78.44
2023-11-01T08:31:16.296Z,76.60
2023-11-01T08:33:52.334Z,77.05
2023-11-01T08:36:24.432Z,77.27
2023-11-01T08:38:52.726Z,75.23
2023-11-01T08:41:23.789Z,76.36
2023-11-01T08:43:52.237Z,77.90
2023-11-01T08:46:22.707Z,77.98
2023-11-01T08:48:51.472Z,77.25
2023-11-01T08:51:21.095Z,76.46
2023-11-01T08:53:52.357Z,75.96
2023-11-01T08:56:23.727Z,75.95
2023-11-01T08:58:52.027Z,74.82
2023-11-01T09:01:31.568Z,76.17
2023-11-01T09:04:02.821Z,76.65
2023-11-01T09:06:37.345Z,77.78
2023-11-01T09:09:08.830Z,76.51
2023-11-01T09:11:41.861Z,75.62
2023-11-01T09:14:10.123Z,75.20
2023-11-01T09:16:38.453Z,75.17
2023-11-01T09:19:09.707Z,76.52
2023-11-01T09:21:44.896Z,75.75
2023-11-01T09:24:16.696Z,75.34
2023-11-01T09:26:47.188Z,75.36
2023-11-01T09:29:19.021Z,74.70
2023-11-01T09:31:47.520Z,75.44
2023-11-01T09:34:16.055Z,75.90
2023-11-01T09:36:53.971Z,75.59
2023-11-01T09:39:25.011Z,74.87
2023-11-01T09:42:10.622Z,75.34
2023-11-01T09:44:44.692Z,75.13
2023-11-01T09:47:16.041Z,74.66
2023-11-01T09:49:46.508Z,73.93
2023-11-01T09:52:16.737Z,73.73
2023-11-01T09:54:45.153Z,74.84
2023-11-01T09:57:14.644Z,74.59
2023-11-01T09:59:43.466Z,73.35
2023-11-01T10:02:15.696Z,74.32
2023-11-01T10:04:46.989Z,73.25
2023-11-01T10:07:16.695Z,73.80
2023-11-01T10:09:45.038Z,73.74
2023-11-01T10:12:17.304Z,73.75
2023-11-01T10:14:49.212Z,72.01
2023-11-01T10:17:19.661Z,71.99
2023-11-01T10:19:51.033Z,71.66
2023-11-01T10:22:20.743Z,72.42
2023-11-01T10:24:52.184Z,73.09
2023-11-01T10:27:20.516Z,72.83
2023-11-01T10:29:49.171Z,71.00
2023-11-01T10:32:17.525Z,71.29
2023-11-01T10:34:48.066Z,70.38
2023-11-01T10:37:25.747Z,70.25
2023-11-01T10:39:55.950Z,70.23
2023-11-01T10:42:24.325Z,69.30
2023-11-01T10:44:53.805Z,70.24
2023-11-01T10:47:22.892Z,70.26
2023-11-01T10:49:53.238Z,69.15
2023-11-01T10:52:23.857Z,69.19
2023-11-01T10:54:53.543Z,70.07
2023-11-01T10:57:23.509Z,70.22
2023-11-01T11:00:02.588Z,68.91
2023-11-01T11:02:50.513Z,69.65
2023-11-01T11:05:25.213Z,67.84
2023-11-01T11:07:58.082Z,67.55
2023-11-01T11:10:29.125Z,66.34
2023-11-01T11:13:30.013Z,67.00
2023-11-01T11:16:01.239Z,67.30
2023-11-01T11:18:52.667Z,67.79
2023-11-01T11:22:04.700Z,67.52
2023-11-01T11:25:02.750Z,67.72
2023-11-01T11:27:55.367Z,67.79
2023-11-01T11:31:01.905Z,68.65
2023-11-01T11:33:32.345Z,68.36
2023-11-01T11:36:23.804Z,66.77
2023-11-01T11:38:56.819Z,66.59
2023-11-01T11:41:30.679Z,66.45
2023-11-01T11:44:33.485Z,67.19
2023-11-01T11:47:25.853Z,66.38
2023-11-01T11:49:54.764Z,65.04
2023-11-01T11:52:26.232Z,64.74
2023-11-01T11:54:54.568Z,67.26
2023-11-01T11:57:30.738Z,67.23
2023-11-01T12:00:09.128Z,65.62
2023-11-01T12:02:37.737Z,66.80
2023-11-01T12:05:07.057Z,66.30
2023-11-01T12:07:48.477Z,63.89
2023-11-01T12:10:22.889Z,64.46
2023-11-01T12:12:59.202Z,65.00
2023-11-01T12:15:41.589Z,65.10
2023-11-01T12:18:13.353Z,65.93
2023-11-01T12:20:41.768Z,64.15
2023-11-01T12:23:11.055Z,66.12
2023-11-01T12:25:42.252Z,64.89
2023-11-01T12:28:22.550Z,64.61
2023-11-01T12:30:53.634Z,64.56
2023-11-01T12:33:22.232Z,65.00
2023-11-01T12:35:53.804Z,65.80
2023-11-01T12:38:22.240Z,64.06
2023-11-01T12:40:52.234Z,64.76
2023-11-01T12:43:21.893Z,65.19
2023-11-01T12:45:54.077Z,64.75
2023-11-01T12:48:22.855Z,63.62
2023-11-01T12:50:51.192Z,64.53
2023-11-01T12:53:19.502Z,63.87
2023-11-01T12:55:50.818Z,65.59
2023-11-01T12:58:23.618Z,65.26
2023-11-01T13:00:56.529Z,63.77
2023-11-01T13:03:30.656Z,65.09
2023-11-01T13:06:01.916Z,64.10
2023-11-01T13:08:33.087Z,64.37
2023-11-01T13:11:01.608Z,65.16
2023-11-01T13:13:31.255Z,63.40
2023-11-01T13:16:01.768Z,65.10
2023-11-01T13:18:32.314Z,64.27
2023-11-01T13:21:02.817Z,62.14
2023-11-01T13:23:31.113Z,64.99
2023-11-01T13:26:13.384Z,66.71
2023-11-01T13:28:44.633Z,64.02
2023-11-01T13:31:15.735Z,63.01
2023-11-01T13:33:44.261Z,63.83
2023-11-01T13:36:24.707Z,64.17
2023-11-01T13:38:55.635Z,63.39
2023-11-01T13:41:24.313Z,62.83
2023-11-01T13:43:54.140Z,63.46
2023-11-01T13:46:22.516Z,64.66
2023-11-01T13:48:50.822Z,65.43
2023-11-01T13:51:21.871Z,65.26
2023-11-01T13:53:53.014Z,63.28
2023-11-01T13:56:21.343Z,63.08
2023-11-01T13:58:51.961Z,63.16
2023-11-01T14:01:29.994Z,65.55
2023-11-01T14:04:01.396Z,66.23
2023-11-01T14:06:29.739Z,65.02
2023-11-01T14:09:00.857Z,63.23
2023-11-01T14:11:29.196Z,63.84
2023-11-01T14:14:07.317Z,67.79
2023-11-01T14:16:37.015Z,64.42
2023-11-01T14:19:11.676Z,64.33
2023-11-01T14:21:42.811Z,64.05
2023-11-01T14:24:11.848Z,64.20
2023-11-01T14:26:43.604Z,67.06
2023-11-01T14:29:11.954Z,65.84
2023-11-01T14:31:41.803Z,66.03
2023-11-01T14:34:16.373Z,65.21
2023-11-01T14:36:49.997Z,67.14
2023-11-01T14:39:18.344Z,67.23
2023-11-01T14:41:53.047Z,66.67
2023-11-01T14:44:36.269Z,66.45
2023-11-01T14:47:06.798Z,64.95
2023-11-01T14:49:40.897Z,66.46
2023-11-01T14:52:09.197Z,66.75
2023-11-01T14:54:37.483Z,66.88
2023-11-01T14:57:11.678Z,67.36
2023-11-01T14:59:39.996Z,67.32
2023-11-01T15:02:09.717Z,64.68
2023-11-01T15:04:41.090Z,66.11
2023-11-01T15:07:12.511Z,65.77
2023-11-01T15:09:41.044Z,65.28
2023-11-01T15:12:10.062Z,65.97
2023-11-01T15:14:38.441Z,66.04
2023-11-01T15:17:06.813Z,66.58
2023-11-01T15:19:36.505Z,66.04
2023-11-01T15:22:05.441Z,66.06
2023-11-01T15:24:33.739Z,65.95
2023-11-01T15:27:02.080Z,66.25
2023-11-01T15:29:30.376Z,65.23
2023-11-01T15:32:01.140Z,66.67
2023-11-01T15:34:37.104Z,66.30
2023-11-01T15:37:09.822Z,66.72
2023-11-01T15:39:39.914Z,65.69
2023-11-01T15:42:12.668Z,67.45
2023-11-01T15:44:40.977Z,65.64
2023-11-01T15:47:12.346Z,65.94
2023-11-01T15:49:40.712Z,67.50
2023-11-01T15:52:10.353Z,67.40
2023-11-01T15:54:38.759Z,66.04
2023-11-01T15:57:14.876Z,64.81
2023-11-01T15:59:43.294Z,65.51
2023-11-01T16:02:11.904Z,65.37
2023-11-01T16:04:40.375Z,66.35
2023-11-01T16:07:10.106Z,66.83
2023-11-01T16:09:42.223Z,67.50
2023-11-01T16:12:13.634Z,67.68
2023-11-01T16:14:46.605Z,68.45
2023-11-01T16:17:15.230Z,66.95
2023-11-01T16:19:49.490Z,67.78
2023-11-01T16:22:22.234Z,68.95
2023-11-01T16:25:01.201Z,69.19
2023-11-01T16:27:31.186Z,69.30
2023-11-01T16:29:59.815Z,69.55
2023-11-01T16:32:29.732Z,69.67
2023-11-01T16:34:58.080Z,70.39
2023-11-01T16:37:30.951Z,70.96
2023-11-01T16:40:00.274Z,71.26
2023-11-01T16:42:30.257Z,72.24
2023-11-01T16:45:05.946Z,71.47
2023-11-01T16:47:34.326Z,72.38
2023-11-01T16:50:02.689Z,71.92
2023-11-01T16:52:32.598Z,71.17
2023-11-01T16:55:11.427Z,72.25
2023-11-01T16:57:40.259Z,70.34
2023-11-01T17:00:13.190Z,71.45
2023-11-01T17:02:47.896Z,71.85
2023-11-01T17:05:21.440Z,72.20
2023-11-01T17:07:54.261Z,70.47
2023-11-01T17:10:25.604Z,68.75
2023-11-01T17:12:54.003Z,69.23
2023-11-01T17:15:34.480Z,67.70
2023-11-01T17:18:02.877Z,68.02
2023-11-01T17:20:31.211Z,68.19
2023-11-01T17:23:09.502Z,67.25
2023-11-01T17:26:37.727Z,66.41
2023-11-01T17:29:13.188Z,67.28
2023-11-01T17:31:43.781Z,66.72
2023-11-01T17:34:14.481Z,67.68
2023-11-01T17:36:48.696Z,66.55
2023-11-01T17:39:38.776Z,68.76
2023-11-01T17:42:12.125Z,67.86
2023-11-01T17:44:45.194Z,68.63
2023-11-01T17:47:26.839Z,68.45
2023-11-01T17:50:01.608Z,64.26
2023-11-01T17:52:42.912Z,62.66
2023-11-01T17:55:17.347Z,62.74
2023-11-01T17:57:46.135Z,64.10
2023-11-01T18:00:16.615Z,65.53
2023-11-01T18:03:21.785Z,63.99
2023-11-01T18:05:50.615Z,62.38
2023-11-01T18:08:20.877Z,63.07
2023-11-01T18:10:56.302Z,62.98
2023-11-01T18:13:28.282Z,63.74
2023-11-01T18:16:04.908Z,62.09
2023-11-01T18:18:51.843Z,63.41
2023-11-01T18:21:34.506Z,64.88
2023-11-01T18:24:09.025Z,62.88
2023-11-01T18:26:40.837Z,63.37
2023-11-01T18:29:11.738Z,62.02
2023-11-01T18:31:43.902Z,61.23
2023-11-01T18:34:18.529Z,64.61
2023-11-01T18:36:49.507Z,65.74
2023-11-01T18:39:23.609Z,66.52
2023-11-01T18:41:55.415Z,62.59
2023-11-01T18:44:30.189Z,64.27
2023-11-01T18:46:59.592Z,67.64
2023-11-01T18:50:00.551Z,67.49
2023-11-01T18:52:28.990Z,64.84
2023-11-01T18:54:57.355Z,66.13
2023-11-01T18:57:36.529Z,67.16
2023-11-01T19:00:10.288Z,64.65
2023-11-01T19:03:04.495Z,66.61
2023-11-01T19:05:33.828Z,64.39
2023-11-01T19:08:02.845Z,65.36
2023-11-01T19:10:36.755Z,67.45
2023-11-01T19:13:13.776Z,64.09
2023-11-01T19:16:15.972Z,66.47
2023-11-01T19:18:57.269Z,66.37
2023-11-01T19:21:31.670Z,66.17
2023-11-01T19:24:04.448Z,64.50
2023-11-01T19:26:35.665Z,65.06
2023-11-01T19:29:05.876Z,65.00
2023-11-01T19:31:34.176Z,67.76
2023-11-01T19:34:06.349Z,67.15
2023-11-01T19:36:34.936Z,65.90
2023-11-01T19:39:07.993Z,64.81
2023-11-01T19:41:36.966Z,64.16
2023-11-01T19:44:07.301Z,67.65
2023-11-01T19:46:38.454Z,65.87
2023-11-01T19:49:07.406Z,66.44
2023-11-01T19:51:35.809Z,69.47
2023-11-01T19:54:04.113Z,68.25
2023-11-01T19:56:35.009Z,68.29
2023-11-01T19:59:09.210Z,67.11
2023-11-01T20:01:37.655Z,67.16
2023-11-01T20:04:06.184Z,67.95
2023-11-01T20:06:34.505Z,64.20
2023-11-01T20:09:07.894Z,67.64
2023-11-01T20:11:36.287Z,66.21
2023-11-01T20:14:04.600Z,67.46
2023-11-01T20:16:34.269Z,65.50
2023-11-01T20:19:11.542Z,66.10
2023-11-01T20:21:42.945Z,66.40
2023-11-01T20:24:11.516Z,64.38
2023-11-01T20:26:43.001Z,66.10
2023-11-01T20:29:11.438Z,68.03
2023-11-01T20:31:41.741Z,66.71
2023-11-01T20:34:10.092Z,66.51
2023-11-01T20:36:38.794Z,65.84
2023-11-01T20:39:08.505Z,65.79
2023-11-01T20:41:40.456Z,67.63
2023-11-01T20:44:12.426Z,67.37
2023-11-01T20:46:42.079Z,68.24
2023-11-01T20:49:13.201Z,65.71
2023-11-01T20:51:41.519Z,66.72
2023-11-01T20:54:15.616Z,66.34
2023-11-01T20:56:48.300Z,65.74
2023-11-01T20:59:22.568Z,67.86
2023-11-01T21:01:54.501Z,66.29
2023-11-01T21:04:32.337Z,65.56
2023-11-01T21:07:02.120Z,66.67
2023-11-01T21:09:34.718Z,65.83
2023-11-01T21:12:06.503Z,67.48
2023-11-01T21:14:38.812Z,65.24
2023-11-01T21:17:13.272Z,65.98
2023-11-01T21:19:41.570Z,66.10
2023-11-01T21:22:16.332Z,65.93
2023-11-01T21:24:53.708Z,67.59
2023-11-01T21:27:22.009Z,67.41
2023-11-01T21:30:00.643Z,66.06
2023-11-01T21:32:32.552Z,65.94
2023-11-01T21:35:16.410Z,65.38
2023-11-01T21:37:44.977Z,65.66
2023-11-01T21:40:19.153Z,66.31
2023-11-01T21:42:56.514Z,68.39
2023-11-01T21:45:48.185Z,66.45
2023-11-01T21:48:24.835Z,64.21
2023-11-01T21:51:06.335Z,64.66
2023-11-01T21:53:38.166Z,65.67
2023-11-01T21:56:09.943Z,65.75
2023-11-01T21:58:38.476Z,66.82
2023-11-01T22:01:08.827Z,66.30
2023-11-01T22:03:49.501Z,65.47
2023-11-01T22:06:31.383Z,67.61
2023-11-01T22:09:08.183Z,66.79
2023-11-01T22:11:39.129Z,68.21
2023-11-01T22:14:11.016Z,67.91
2023-11-01T22:16:41.398Z,65.21
2023-11-01T22:19:33.529Z,66.52
2023-11-01T22:22:05.815Z,65.44
2023-11-01T22:24:38.304Z,68.19
2023-11-01T22:27:10.797Z,66.75
2023-11-01T22:29:47.585Z,66.71
2023-11-01T22:32:31.958Z,67.28
2023-11-01T22:35:09.441Z,66.60
2023-11-01T22:37:38.531Z,65.79
2023-11-01T22:40:09.023Z,65.08
2023-11-01T22:42:37.649Z,68.20
2023-11-01T22:45:06.890Z,66.52
2023-11-01T22:47:35.596Z,66.29
2023-11-01T22:50:16.056Z,66.89
2023-11-01T22:52:44.603Z,68.11
2023-11-01T22:55:18.788Z,66.96
2023-11-01T22:57:56.452Z,67.99
2023-11-01T23:00:29.954Z,67.93
2023-11-01T23:03:02.062Z,67.03
2023-11-01T23:05:35.731Z,67.73
2023-11-01T23:08:07.749Z,67.53
2023-11-01T23:10:36.312Z,68.15
2023-11-01T23:13:04.820Z,68.87
2023-11-01T23:15:41.413Z,68.16
2023-11-01T23:18:13.551Z,67.85
2023-11-01T23:20:44.365Z,69.93
2023-11-01T23:23:14.947Z,67.95
2023-11-01T23:25:46.217Z,69.11
2023-11-01T23:28:46.867Z,69.19
2023-11-01T23:31:20.036Z,67.78
2023-11-01T23:33:51.490Z,69.46
2023-11-01T23:36:28.442Z,67.98
2023-11-01T23:38:57.557Z,68.48
2023-11-01T23:41:54.837Z,69.45
2023-11-01T23:44:26.468Z,69.28
2023-11-01T23:46:55.097Z,68.41
2023-11-01T23:50:00.502Z,68.94
2023-11-01T23:52:33.341Z,68.67
2023-11-01T23:55:01.656Z,69.45
2023-11-01T23:57:32.281Z,68.40
